createdAt,value
2022-10-30T00:00:50.476Z,38.90
2022-10-30T00:03:17.747Z,38.90
2022-10-30T00:05:50.086Z,38.90
2022-10-30T00:08:19.576Z,38.90
2022-10-30T00:10:47.111Z,38.90
2022-10-30T00:13:14.448Z,39.00
2022-10-30T00:15:47.642Z,39.00
2022-10-30T00:18:14.763Z,38.90
2022-10-30T00:20:41.877Z,38.70
2022-10-30T00:23:08.880Z,38.50
2022-10-30T00:25:36.688Z,38.40
2022-10-30T00:28:06.075Z,38.50
2022-10-30T00:30:34.239Z,38.00
2022-10-30T00:33:01.466Z,37.70
2022-10-30T00:35:28.637Z,37.60
2022-10-30T00:37:55.866Z,37.70
2022-10-30T00:40:23.070Z,37.70
2022-10-30T00:42:50.003Z,37.70
2022-10-30T00:45:17.914Z,37.80
2022-10-30T00:48:00.934Z,37.70
2022-10-30T00:50:36.598Z,38.00
2022-10-30T00:53:11.887Z,38.00
2022-10-30T00:55:48.391Z,38.10
2022-10-30T00:58:21.046Z,38.20
2022-10-30T01:00:52.341Z,38.20
2022-10-30T01:03:22.093Z,38.10
2022-10-30T01:05:55.158Z,38.20
2022-10-30T01:08:22.251Z,38.40
2022-10-30T01:10:50.459Z,38.40
2022-10-30T01:13:20.538Z,38.60
2022-10-30T01:16:00.246Z,38.70
2022-10-30T01:18:46.334Z,38.70
2022-10-30T01:21:33.320Z,38.70
2022-10-30T01:24:37.331Z,38.40
2022-10-30T01:27:15.644Z,38.40
2022-10-30T01:30:15.782Z,38.30
2022-10-30T01:33:07.634Z,38.30
2022-10-30T01:36:13.197Z,38.30
2022-10-30T01:38:45.668Z,38.20
2022-10-30T01:41:12.561Z,38.20
2022-10-30T01:43:40.897Z,38.10
2022-10-30T01:46:26.775Z,38.10
2022-10-30T01:49:06.721Z,38.00
2022-10-30T01:51:52.911Z,38.10
2022-10-30T01:54:44.128Z,38.20
2022-10-30T01:57:27.863Z,38.10
2022-10-30T02:00:02.722Z,37.80
2022-10-30T02:02:31.128Z,37.80
2022-10-30T02:04:58.713Z,37.60
2022-10-30T02:07:25.949Z,37.80
2022-10-30T02:09:54.121Z,38.00
2022-10-30T02:12:22.946Z,38.10
2022-10-30T02:14:58.047Z,38.20
2022-10-30T02:17:26.236Z,38.30
2022-10-30T02:19:53.322Z,38.30
2022-10-30T02:22:20.300Z,38.30
2022-10-30T02:24:48.428Z,38.40
2022-10-30T02:27:15.360Z,38.50
2022-10-30T02:29:42.243Z,38.50
2022-10-30T02:32:09.145Z,38.60
2022-10-30T02:34:36.948Z,38.60
2022-10-30T02:37:03.881Z,38.60
2022-10-30T02:39:30.882Z,38.60
2022-10-30T02:41:57.875Z,38.60
2022-10-30T02:44:24.822Z,38.70
2022-10-30T02:46:51.732Z,38.70
2022-10-30T02:49:18.729Z,38.60
2022-10-30T02:51:45.622Z,38.70
2022-10-30T02:54:12.622Z,38.70
2022-10-30T02:56:42.659Z,38.60
2022-10-30T02:59:09.760Z,38.50
2022-10-30T03:01:36.745Z,38.50
2022-10-30T03:04:03.852Z,38.50
2022-10-30T03:06:30.764Z,38.60
2022-10-30T03:08:57.766Z,38.60
2022-10-30T03:11:24.760Z,38.50
2022-10-30T03:13:54.987Z,38.60
2022-10-30T03:16:24.205Z,38.70
2022-10-30T03:18:52.385Z,38.70
2022-10-30T03:21:21.928Z,38.70
2022-10-30T03:23:50.711Z,38.80
2022-10-30T03:26:18.763Z,38.80
2022-10-30T03:28:46.424Z,38.70
2022-10-30T03:31:16.180Z,38.60
2022-10-30T03:33:43.856Z,38.60
2022-10-30T03:36:12.706Z,38.60
2022-10-30T03:38:39.955Z,38.60
2022-10-30T03:41:07.250Z,38.60
2022-10-30T03:43:34.526Z,38.60
2022-10-30T03:46:01.672Z,38.50
2022-10-30T03:48:29.655Z,38.60
2022-10-30T03:50:58.393Z,38.50
2022-10-30T03:53:26.480Z,38.40
2022-10-30T03:55:58.151Z,38.50
2022-10-30T03:58:25.339Z,38.60
2022-10-30T04:00:52.300Z,38.30
2022-10-30T04:03:19.299Z,38.30
2022-10-30T04:05:46.227Z,38.20
2022-10-30T04:08:14.327Z,38.10
2022-10-30T04:10:46.084Z,38.20
2022-10-30T04:13:15.225Z,38.20
2022-10-30T04:15:43.057Z,38.20
2022-10-30T04:18:12.209Z,38.20
2022-10-30T04:20:39.352Z,38.20
2022-10-30T04:23:08.308Z,38.20
2022-10-30T04:25:36.519Z,38.20
2022-10-30T04:28:03.949Z,38.10
2022-10-30T04:30:35.468Z,38.20
2022-10-30T04:33:04.751Z,38.30
2022-10-30T04:35:34.259Z,38.30
2022-10-30T04:38:12.908Z,38.40
2022-10-30T04:40:43.144Z,38.40
2022-10-30T04:43:12.367Z,38.40
2022-10-30T04:45:40.542Z,38.30
2022-10-30T04:48:18.695Z,38.20
2022-10-30T04:50:45.987Z,38.10
2022-10-30T04:53:18.183Z,38.10
2022-10-30T04:55:45.445Z,38.20
2022-10-30T04:58:13.212Z,38.30
2022-10-30T05:00:41.049Z,38.30
2022-10-30T05:03:08.009Z,38.30
2022-10-30T05:05:34.979Z,38.30
2022-10-30T05:08:02.342Z,38.30
2022-10-30T05:10:29.540Z,38.40
2022-10-30T05:12:56.832Z,38.30
2022-10-30T05:15:23.815Z,38.00
2022-10-30T05:17:54.269Z,38.00
2022-10-30T05:20:21.940Z,38.00
2022-10-30T05:22:56.140Z,38.00
2022-10-30T05:25:24.411Z,38.00
2022-10-30T05:27:51.532Z,38.10
2022-10-30T05:30:18.440Z,38.10
2022-10-30T05:32:45.482Z,38.20
2022-10-30T05:35:12.426Z,38.10
2022-10-30T05:37:39.630Z,38.10
2022-10-30T05:40:07.096Z,38.20
2022-10-30T05:42:33.987Z,38.20
2022-10-30T05:45:02.217Z,38.20
2022-10-30T05:47:29.453Z,38.20
2022-10-30T05:49:56.373Z,38.20
2022-10-30T05:52:23.297Z,38.30
2022-10-30T05:54:50.228Z,38.20
2022-10-30T05:57:17.180Z,38.20
2022-10-30T05:59:44.081Z,38.20
2022-10-30T06:02:11.173Z,38.30
2022-10-30T06:04:38.397Z,38.20
2022-10-30T06:07:05.495Z,38.10
2022-10-30T06:09:32.453Z,38.10
2022-10-30T06:11:59.397Z,38.00
2022-10-30T06:14:26.316Z,38.00
2022-10-30T06:16:53.359Z,38.00
2022-10-30T06:19:20.248Z,38.10
2022-10-30T06:21:48.642Z,38.10
2022-10-30T06:24:15.659Z,38.00
2022-10-30T06:26:42.601Z,37.70
2022-10-30T06:29:09.600Z,37.90
2022-10-30T06:31:36.562Z,38.00
2022-10-30T06:34:03.928Z,38.00
2022-10-30T06:36:30.953Z,38.10
2022-10-30T06:38:57.962Z,38.20
2022-10-30T06:41:29.098Z,38.10
2022-10-30T06:43:57.332Z,38.10
2022-10-30T06:46:27.138Z,37.90
2022-10-30T06:48:57.852Z,37.90
2022-10-30T06:51:25.140Z,38.00
2022-10-30T06:53:52.129Z,37.90
2022-10-30T06:56:19.076Z,37.90
2022-10-30T06:58:45.993Z,37.70
2022-10-30T07:01:13.097Z,37.90
2022-10-30T07:03:40.398Z,37.90
2022-10-30T07:06:07.728Z,37.70
2022-10-30T07:08:34.665Z,37.60
2022-10-30T07:11:01.707Z,37.60
2022-10-30T07:13:28.677Z,36.90
2022-10-30T07:15:55.548Z,37.10
2022-10-30T07:18:22.521Z,37.60
2022-10-30T07:20:55.564Z,37.50
2022-10-30T07:23:24.346Z,37.60
2022-10-30T07:25:51.307Z,37.40
2022-10-30T07:28:18.391Z,37.50
2022-10-30T07:30:45.347Z,37.90
2022-10-30T07:33:12.260Z,37.80
2022-10-30T07:35:39.257Z,37.90
2022-10-30T07:38:10.252Z,37.90
2022-10-30T07:40:37.511Z,38.10
2022-10-30T07:43:05.342Z,38.30
2022-10-30T07:45:33.342Z,38.40
2022-10-30T07:48:00.777Z,38.30
2022-10-30T07:50:29.569Z,38.10
2022-10-30T07:52:58.145Z,38.20
2022-10-30T07:55:26.433Z,38.20
2022-10-30T07:57:53.792Z,38.30
2022-10-30T08:00:21.040Z,38.10
2022-10-30T08:02:52.201Z,38.30
2022-10-30T08:05:19.305Z,38.60
2022-10-30T08:07:48.055Z,38.60
2022-10-30T08:10:15.499Z,38.50
2022-10-30T08:12:44.142Z,38.60
2022-10-30T08:15:12.553Z,38.70
2022-10-30T08:17:50.251Z,38.70
2022-10-30T08:20:21.506Z,38.90
2022-10-30T08:22:56.445Z,39.00
2022-10-30T08:25:27.436Z,39.00
2022-10-30T08:28:02.114Z,39.10
2022-10-30T08:30:31.920Z,39.20
2022-10-30T08:33:04.372Z,39.20
2022-10-30T08:35:32.706Z,39.30
2022-10-30T08:38:03.001Z,39.20
2022-10-30T08:40:29.954Z,39.20
2022-10-30T08:42:58.229Z,39.00
2022-10-30T08:45:29.993Z,39.10
2022-10-30T08:48:05.666Z,39.20
2022-10-30T08:50:33.982Z,39.30
2022-10-30T08:53:03.657Z,39.20
2022-10-30T08:55:32.043Z,39.20
2022-10-30T08:57:59.379Z,39.30
2022-10-30T09:00:27.012Z,39.00
2022-10-30T09:02:54.430Z,39.10
2022-10-30T09:05:22.257Z,38.80
2022-10-30T09:07:49.305Z,38.90
2022-10-30T09:10:16.514Z,38.80
2022-10-30T09:12:43.617Z,38.50
2022-10-30T09:15:10.558Z,38.20
2022-10-30T09:17:37.608Z,38.20
2022-10-30T09:20:05.298Z,38.40
2022-10-30T09:22:32.288Z,38.40
2022-10-30T09:24:59.229Z,38.70
2022-10-30T09:27:27.664Z,38.80
2022-10-30T09:29:54.735Z,39.00
2022-10-30T09:32:22.319Z,39.00
2022-10-30T09:34:49.338Z,38.70
2022-10-30T09:37:16.494Z,39.00
2022-10-30T09:39:43.563Z,38.80
2022-10-30T09:42:37.809Z,39.00
2022-10-30T09:45:30.533Z,39.00
2022-10-30T09:48:35.783Z,38.90
2022-10-30T09:51:27.929Z,38.40
2022-10-30T09:54:30.221Z,38.60
2022-10-30T09:57:12.281Z,38.80
2022-10-30T09:59:50.841Z,39.60
2022-10-30T10:02:20.716Z,40.00
2022-10-30T10:04:52.525Z,40.40
2022-10-30T10:07:23.433Z,40.90
2022-10-30T10:09:52.820Z,40.70
2022-10-30T10:12:30.543Z,40.90
2022-10-30T10:15:00.913Z,41.20
2022-10-30T10:17:47.337Z,41.70
2022-10-30T10:20:23.225Z,42.40
2022-10-30T10:22:51.160Z,42.70
2022-10-30T10:25:20.728Z,42.40
2022-10-30T10:28:09.111Z,42.80
2022-10-30T10:31:12.885Z,42.60
2022-10-30T10:34:20.077Z,42.90
2022-10-30T10:37:14.542Z,42.80
2022-10-30T10:40:29.083Z,42.70
2022-10-30T10:43:22.148Z,42.50
2022-10-30T10:46:07.908Z,42.60
2022-10-30T10:48:46.742Z,42.70
2022-10-30T10:51:39.374Z,42.80
2022-10-30T10:54:20.149Z,43.60
2022-10-30T10:56:48.723Z,44.40
2022-10-30T10:59:26.528Z,44.70
2022-10-30T11:02:05.737Z,45.20
2022-10-30T11:04:47.037Z,45.40
2022-10-30T11:07:19.553Z,45.60
2022-10-30T11:09:51.257Z,45.50
2022-10-30T11:12:40.122Z,44.60
2022-10-30T11:15:42.931Z,44.10
2022-10-30T11:18:12.287Z,44.10
2022-10-30T11:20:57.410Z,44.00
2022-10-30T11:23:32.816Z,44.20
2022-10-30T11:26:00.666Z,44.20
2022-10-30T11:28:45.523Z,44.50
2022-10-30T11:31:35.251Z,44.70
2022-10-30T11:34:29.221Z,44.50
2022-10-30T11:36:56.233Z,44.40
2022-10-30T11:39:34.722Z,44.70
2022-10-30T11:42:15.830Z,44.80
2022-10-30T11:44:49.657Z,44.90
2022-10-30T11:47:21.819Z,44.80
2022-10-30T11:50:01.746Z,45.20
2022-10-30T11:52:29.095Z,45.70
2022-10-30T11:55:01.552Z,45.40
2022-10-30T11:57:51.747Z,45.00
2022-10-30T12:00:28.309Z,44.80
2022-10-30T12:03:00.772Z,45.10
2022-10-30T12:05:28.295Z,44.40
2022-10-30T12:08:08.035Z,44.60
2022-10-30T12:11:05.299Z,44.30
2022-10-30T12:13:38.492Z,43.70
2022-10-30T12:16:07.515Z,44.10
2022-10-30T12:18:35.013Z,43.90
2022-10-30T12:21:03.364Z,44.30
2022-10-30T12:23:31.488Z,43.80
2022-10-30T12:26:01.992Z,44.00
2022-10-30T12:28:31.794Z,44.20
2022-10-30T12:30:58.702Z,44.70
2022-10-30T12:33:42.522Z,44.70
2022-10-30T12:36:21.263Z,45.10
2022-10-30T12:38:53.626Z,45.00
2022-10-30T12:41:33.972Z,44.60
2022-10-30T12:44:14.958Z,44.70
2022-10-30T12:46:54.656Z,44.60
2022-10-30T12:49:31.310Z,44.70
2022-10-30T12:52:07.620Z,44.30
2022-10-30T12:54:40.385Z,44.30
2022-10-30T12:57:23.061Z,44.90
2022-10-30T13:00:01.895Z,45.00
2022-10-30T13:03:01.404Z,45.20
2022-10-30T13:05:46.777Z,45.20
2022-10-30T13:08:34.402Z,45.30
2022-10-30T13:11:19.810Z,45.60
2022-10-30T13:13:52.271Z,46.00
2022-10-30T13:16:31.200Z,46.10
2022-10-30T13:19:02.395Z,46.40
2022-10-30T13:21:54.471Z,46.60
2022-10-30T13:24:42.142Z,46.70
2022-10-30T13:27:42.261Z,46.50
2022-10-30T13:30:17.396Z,46.30
2022-10-30T13:33:08.717Z,46.10
2022-10-30T13:35:54.414Z,46.20
2022-10-30T13:38:48.991Z,46.20
2022-10-30T13:41:27.864Z,46.30
2022-10-30T13:44:01.851Z,46.40
2022-10-30T13:46:46.246Z,46.40
2022-10-30T13:49:28.579Z,46.40
2022-10-30T13:52:12.275Z,46.40
2022-10-30T13:54:58.266Z,46.40
2022-10-30T13:57:52.564Z,46.60
2022-10-30T14:00:48.843Z,46.40
2022-10-30T14:03:18.482Z,46.20
2022-10-30T14:05:51.239Z,46.20
2022-10-30T14:08:21.031Z,46.20
2022-10-30T14:10:57.687Z,46.10
2022-10-30T14:13:46.080Z,45.80
2022-10-30T14:16:37.125Z,45.80
2022-10-30T14:19:06.676Z,45.80
2022-10-30T14:21:41.873Z,45.70
2022-10-30T14:24:16.885Z,45.60
2022-10-30T14:26:52.897Z,45.60
2022-10-30T14:29:44.728Z,45.60
2022-10-30T14:32:14.572Z,45.60
2022-10-30T14:34:51.705Z,45.50
2022-10-30T14:37:38.769Z,45.30
2022-10-30T14:40:32.657Z,45.20
2022-10-30T14:43:10.225Z,45.00
2022-10-30T14:45:53.148Z,45.00
2022-10-30T14:48:30.522Z,44.70
2022-10-30T14:51:09.292Z,44.40
2022-10-30T14:53:48.560Z,44.00
2022-10-30T14:56:18.399Z,43.80
2022-10-30T14:59:14.507Z,43.70
2022-10-30T15:02:12.633Z,43.80
2022-10-30T15:05:12.966Z,43.70
2022-10-30T15:07:54.984Z,43.40
2022-10-30T15:10:36.625Z,43.30
2022-10-30T15:13:21.599Z,43.00
2022-10-30T15:16:07.241Z,42.70
2022-10-30T15:18:35.009Z,42.70
2022-10-30T15:21:08.751Z,42.60
2022-10-30T15:23:37.655Z,42.50
2022-10-30T15:26:19.326Z,42.20
2022-10-30T15:28:52.662Z,42.00
2022-10-30T15:31:27.391Z,41.90
2022-10-30T15:33:55.840Z,41.80
2022-10-30T15:36:30.776Z,41.70
2022-10-30T15:39:19.879Z,41.60
2022-10-30T15:41:59.391Z,41.50
2022-10-30T15:44:29.142Z,41.40
2022-10-30T15:46:58.086Z,41.30
2022-10-30T15:49:50.012Z,41.20
2022-10-30T15:52:22.889Z,41.10
2022-10-30T15:54:56.888Z,40.80
2022-10-30T16:00:24.526Z,40.30
2022-10-30T16:03:12.185Z,40.10
2022-10-30T16:05:40.734Z,40.00
2022-10-30T16:08:22.765Z,39.80
2022-10-30T16:10:53.748Z,39.30
2022-10-30T16:13:28.191Z,38.90
2022-10-30T16:15:55.507Z,38.60
2022-10-30T16:18:35.886Z,38.20
2022-10-30T16:21:06.993Z,37.90
2022-10-30T16:23:41.492Z,37.60
2022-10-30T16:26:35.005Z,37.60
2022-10-30T16:29:13.914Z,37.40
2022-10-30T16:31:44.596Z,37.50
2022-10-30T16:34:20.246Z,38.10
2022-10-30T16:36:50.974Z,38.20
2022-10-30T16:39:20.732Z,37.80
2022-10-30T16:41:49.040Z,38.10
2022-10-30T16:44:35.842Z,38.10
2022-10-30T16:47:25.002Z,38.00
2022-10-30T16:49:58.319Z,37.40
2022-10-30T16:52:41.992Z,37.20
2022-10-30T16:55:22.328Z,37.20
2022-10-30T16:57:56.289Z,37.20
2022-10-30T17:00:39.364Z,37.70
2022-10-30T17:03:11.833Z,38.30
2022-10-30T17:05:42.092Z,38.70
2022-10-30T17:08:18.086Z,38.70
2022-10-30T17:11:01.509Z,38.30
2022-10-30T17:13:51.447Z,37.50
2022-10-30T17:16:25.513Z,36.90
2022-10-30T17:18:58.523Z,36.50
2022-10-30T17:21:38.645Z,36.80
2022-10-30T17:24:19.420Z,36.60
2022-10-30T17:27:01.533Z,36.60
2022-10-30T17:29:37.725Z,36.60
2022-10-30T17:32:06.783Z,36.70
2022-10-30T17:34:40.233Z,37.10
2022-10-30T17:37:07.378Z,36.90
2022-10-30T17:39:34.632Z,37.30
2022-10-30T17:42:01.928Z,37.70
2022-10-30T17:44:31.584Z,37.80
2022-10-30T17:46:59.077Z,37.80
2022-10-30T17:49:29.252Z,37.90
2022-10-30T17:51:56.375Z,38.10
2022-10-30T17:54:23.938Z,38.20
2022-10-30T17:56:51.325Z,38.20
2022-10-30T17:59:18.334Z,38.40
2022-10-30T18:01:45.461Z,38.60
2022-10-30T18:04:21.046Z,38.70
2022-10-30T18:06:49.476Z,38.80
2022-10-30T18:09:16.776Z,38.70
2022-10-30T18:11:44.177Z,38.70
2022-10-30T18:14:12.303Z,38.70
2022-10-30T18:16:39.451Z,38.60
2022-10-30T18:19:10.064Z,38.60
2022-10-30T18:21:37.784Z,38.80
2022-10-30T18:24:11.436Z,38.80
2022-10-30T18:26:40.737Z,39.00
2022-10-30T18:29:09.643Z,39.10
2022-10-30T18:31:37.194Z,38.90
2022-10-30T18:34:04.649Z,38.80
2022-10-30T18:36:31.769Z,38.70
2022-10-30T18:38:58.715Z,38.60
2022-10-30T18:41:35.525Z,38.40
2022-10-30T18:44:03.151Z,38.20
2022-10-30T18:46:31.488Z,37.80
2022-10-30T18:48:59.138Z,37.50
2022-10-30T18:51:31.232Z,37.40
2022-10-30T18:54:18.722Z,37.30
2022-10-30T18:56:45.749Z,37.20
2022-10-30T18:59:15.397Z,37.50
2022-10-30T19:01:44.111Z,37.30
2022-10-30T19:04:11.353Z,37.30
2022-10-30T19:06:39.417Z,37.00
2022-10-30T19:09:07.098Z,36.80
2022-10-30T19:11:35.319Z,36.40
2022-10-30T19:14:21.745Z,35.90
2022-10-30T19:16:48.698Z,35.80
2022-10-30T19:19:15.596Z,35.30
2022-10-30T19:21:48.863Z,35.90
2022-10-30T19:24:17.927Z,36.20
2022-10-30T19:26:46.957Z,36.50
2022-10-30T19:29:14.300Z,36.70
2022-10-30T19:31:43.077Z,36.70
2022-10-30T19:34:10.066Z,37.10
2022-10-30T19:36:38.098Z,37.60
2022-10-30T19:39:11.999Z,37.80
2022-10-30T19:41:41.310Z,38.10
2022-10-30T19:44:08.392Z,38.10
2022-10-30T19:46:39.235Z,38.20
2022-10-30T19:49:21.092Z,38.30
2022-10-30T19:51:48.890Z,38.50
2022-10-30T19:54:15.872Z,38.40
2022-10-30T19:56:45.446Z,38.50
2022-10-30T19:59:14.594Z,38.50
2022-10-30T20:01:41.984Z,38.40
2022-10-30T20:04:12.171Z,38.50
2022-10-30T20:06:39.361Z,38.40
2022-10-30T20:09:06.271Z,38.10
2022-10-30T20:11:33.397Z,37.70
2022-10-30T20:14:00.725Z,37.30
2022-10-30T20:16:28.523Z,37.10
2022-10-30T20:19:02.921Z,36.80
2022-10-30T20:21:31.482Z,36.70
2022-10-30T20:24:00.914Z,36.70
2022-10-30T20:26:30.222Z,36.40
2022-10-30T20:28:57.741Z,36.10
2022-10-30T20:31:24.966Z,36.20
2022-10-30T20:33:51.954Z,36.20
2022-10-30T20:36:19.199Z,36.10
2022-10-30T20:38:46.214Z,35.50
2022-10-30T20:41:28.361Z,34.50
2022-10-30T20:43:55.672Z,33.60
2022-10-30T20:46:22.874Z,33.10
2022-10-30T20:48:50.008Z,33.10
2022-10-30T20:51:17.356Z,33.30
2022-10-30T20:53:44.548Z,33.10
2022-10-30T20:56:12.228Z,33.10
2022-10-30T20:58:39.857Z,33.40
2022-10-30T21:01:06.979Z,33.90
2022-10-30T21:03:34.096Z,34.40
2022-10-30T21:06:02.374Z,35.00
2022-10-30T21:08:33.846Z,35.60
2022-10-30T21:11:07.872Z,35.90
2022-10-30T21:13:35.654Z,36.10
2022-10-30T21:16:10.291Z,36.40
2022-10-30T21:18:37.488Z,36.50
2022-10-30T21:21:07.613Z,35.80
2022-10-30T21:23:35.044Z,36.00
2022-10-30T21:26:07.500Z,35.70
2022-10-30T21:28:37.544Z,35.80
2022-10-30T21:31:09.957Z,35.90
2022-10-30T21:33:38.253Z,35.70
2022-10-30T21:36:14.299Z,35.40
2022-10-30T21:38:46.782Z,35.60
2022-10-30T21:41:20.008Z,35.60
2022-10-30T21:43:55.411Z,35.70
2022-10-30T21:46:24.953Z,35.50
2022-10-30T21:48:52.860Z,35.80
2022-10-30T21:51:28.604Z,35.80
2022-10-30T21:53:57.872Z,35.80
2022-10-30T21:56:27.547Z,35.60
2022-10-30T21:59:00.429Z,35.10
2022-10-30T22:01:31.819Z,34.80
2022-10-30T22:04:03.025Z,34.90
2022-10-30T22:06:30.309Z,34.80
2022-10-30T22:08:57.975Z,34.70
2022-10-30T22:11:27.518Z,34.90
2022-10-30T22:13:58.388Z,35.10
2022-10-30T22:16:31.575Z,35.20
2022-10-30T22:19:02.283Z,35.40
2022-10-30T22:21:29.974Z,34.80
2022-10-30T22:24:00.144Z,34.60
2022-10-30T22:26:27.666Z,34.70
2022-10-30T22:28:56.840Z,35.00
2022-10-30T22:31:25.666Z,34.70
2022-10-30T22:33:52.964Z,35.00
2022-10-30T22:36:30.034Z,35.50
2022-10-30T22:39:00.382Z,35.80
2022-10-30T22:41:32.789Z,36.00
2022-10-30T22:44:10.953Z,36.40
2022-10-30T22:46:38.389Z,36.70
2022-10-30T22:49:05.667Z,36.60
2022-10-30T22:51:35.628Z,36.60
2022-10-30T22:54:04.678Z,36.60
2022-10-30T22:56:33.937Z,36.70
2022-10-30T22:59:02.994Z,36.80
2022-10-30T23:01:32.879Z,36.50
2022-10-30T23:04:01.696Z,36.60
2022-10-30T23:06:30.732Z,36.50
2022-10-30T23:09:02.597Z,36.60
2022-10-30T23:11:30.431Z,36.50
2022-10-30T23:13:57.935Z,36.40
2022-10-30T23:16:26.107Z,36.00
2022-10-30T23:18:57.360Z,36.10
2022-10-30T23:21:26.635Z,36.20
2022-10-30T23:23:54.134Z,36.40
2022-10-30T23:26:23.535Z,36.60
2022-10-30T23:28:52.424Z,36.60
2022-10-30T23:31:28.602Z,36.80
2022-10-30T23:34:00.556Z,36.60
2022-10-30T23:36:30.781Z,36.50
2022-10-30T23:39:02.270Z,36.60
2022-10-30T23:41:31.151Z,36.70
2022-10-30T23:44:06.883Z,36.60
2022-10-30T23:46:35.369Z,36.40
2022-10-30T23:49:05.905Z,35.90
2022-10-30T23:51:33.558Z,35.20
2022-10-30T23:54:00.505Z,35.10
2022-10-30T23:56:29.575Z,35.00
2022-10-30T23:58:57.023Z,35.20
